Главная страница
METAR-TAF:

METAR-TAF

Аэропорты :

Sindal, Дания

широта: 57-30N, долгота: 010-13E, высота над уровнем моря: 28 м

Текущие метеонаблюдения

Эта сводка был подготовлена 17 часа и 45 минут назад, в 11:50 UTC
Ветер 24 Узел от юго-западный
Температура 15°C
Влажность 77%
Давление 1008 hPa
Видимость 10 км и более
Отдельные облака на высоте 1700 фута
Рассеянная облачность на высоте 5500 фута

METAR: EKSN 201150Z 23024KT 9999 SCT017 BKN055 15/11 Q1008

Время: 07:35 (05:35 UTC)

Прогноз

Эта сводка был подготовлена 20 часа и 36 минут назад, в 08:59 UTC
Прогноз действительный с 20-го 09 UTC до 20-го 14 UTC
Ветер 15 Узел от юго-западный
Видимость 10 км и более
Рассеянная облачность на высоте 2000 фута
временами
С 20-го 10 UTC до 20-го 14 UTC
Ветер 15 Узел от юго-западный с порывами до 25 Узел

TAF: EKSN 200859Z 2009/2014 22015KT 9999 BKN020 TEMPO 2010/2014 22015G25KT

Метеонаблюдения и прогнозы для более 4000 аэропортов (сводки METAR и TAF).

Имеющиеся станции представлены на карте желтыми и красными точками.

Чтобы увидеть название станции, наведите на нее мышь.

Затем щелкните, чтобы увидеть метеонаблюдения и метеопрогнозы.

Управление картой: чтобы увеличить масштаб, щелкните зеленые кнопки с черным крестиком; чтобы уменьшить масштаб, щелкните зеленую кнопку с тире; для просмотра соседних карт щелкайте зеленые стрелки.


METAR-TAF: